Time;durP1;ratioP1;P1;durP2;ratioP2;P2;SDS_P1;SDS_P2;PMS_P1;PMS_P2;Temp;Humidity;BMP_temperature;BMP_pressure;BME280_temperature;BME280_humidity;BME280_pressure;Samples;Min_cycle;Max_cycle;Signal;HPM_P1;HPM_P2
2023/07/10 00:01:26;;;;;;;16.10;14.80;;;22.80;98.20;;;;;;5049615;28;20417;-68
2023/07/10 00:03:52;;;;;;;17.13;15.63;;;22.80;98.40;;;;;;5049401;28;20488;-68
2023/07/10 00:06:20;;;;;;;17.70;16.10;;;22.70;98.60;;;;;;5049662;28;20539;-68
2023/07/10 00:08:47;;;;;;;18.50;17.20;;;22.70;99.00;;;;;;5048389;28;20785;-68
2023/07/10 00:11:16;;;;;;;20.67;18.97;;;22.70;99.20;;;;;;5051634;28;20962;-68
2023/07/10 00:13:43;;;;;;;18.15;16.70;;;22.60;99.70;;;;;;5056713;28;20429;-68
2023/07/10 00:16:15;;;;;;;17.90;16.50;;;22.70;99.90;;;;;;5055407;28;20418;-67
2023/07/10 00:18:42;;;;;;;18.83;17.33;;;22.60;99.90;;;;;;5048828;28;20463;-68
2023/07/10 00:21:09;;;;;;;18.80;17.30;;;22.70;99.90;;;;;;5048940;28;20424;-67
2023/07/10 00:23:36;;;;;;;20.40;18.77;;;22.70;99.90;;;;;;5048780;28;20417;-68
2023/07/10 00:26:05;;;;;;;20.15;18.45;;;22.70;99.90;;;;;;5054116;28;20438;-67
2023/07/10 00:28:32;;;;;;;19.63;18.00;;;22.60;99.90;;;;;;5056557;28;20441;-67
2023/07/10 00:30:59;;;;;;;19.23;17.52;;;22.60;99.90;;;;;;5056280;28;20420;-67
2023/07/10 00:33:27;;;;;;;18.30;16.83;;;22.60;99.90;;;;;;5048724;28;20419;-68
2023/07/10 00:35:53;;;;;;;18.92;17.52;;;22.60;99.90;;;;;;5049003;28;20420;-68
2023/07/10 00:38:23;;;;;;;17.50;16.20;;;22.60;99.90;;;;;;5048338;28;20764;-67
2023/07/10 00:40:50;;;;;;;19.33;17.70;;;22.60;99.90;;;;;;5050542;28;20432;-67
2023/07/10 00:43:31;;;;;;;17.73;16.30;;;22.60;99.90;;;;;;5053991;28;20429;-68
2023/07/10 00:46:05;;;;;;;16.65;15.35;;;22.60;99.90;;;;;;5060416;28;20432;-68
2023/07/10 00:48:40;;;;;;;16.93;15.50;;;22.60;99.90;;;;;;5068223;28;20412;-68
2023/07/10 00:51:17;;;;;;;17.08;15.57;;;22.60;99.70;;;;;;5067751;28;20866;-68
2023/07/10 00:53:46;;;;;;;15.80;14.50;;;22.60;99.70;;;;;;5068009;28;20415;-68
2023/07/10 00:56:18;;;;;;;17.90;16.45;;;22.60;99.70;;;;;;5061418;28;20429;-68
2023/07/10 00:58:47;;;;;;;16.95;15.65;;;22.60;99.00;;;;;;5056255;28;20417;-69
2023/07/10 01:01:16;;;;;;;17.20;15.77;;;22.60;98.70;;;;;;5047426;28;20413;-68
2023/07/10 01:03:45;;;;;;;16.40;15.00;;;22.50;98.90;;;;;;5056723;28;20436;-67
2023/07/10 01:06:14;;;;;;;15.20;13.80;;;22.40;99.60;;;;;;5053663;28;20436;-68
2023/07/10 01:08:45;;;;;;;15.35;14.15;;;22.40;99.50;;;;;;5047538;28;20428;-69
2023/07/10 01:11:12;;;;;;;14.70;13.20;;;22.50;99.20;;;;;;5050839;28;20433;-68
2023/07/10 01:13:42;;;;;;;14.57;13.30;;;22.50;98.90;;;;;;5056367;28;20887;-69
2023/07/10 01:16:09;;;;;;;14.90;13.40;;;22.50;98.60;;;;;;5052928;28;20454;-67
2023/07/10 01:18:39;;;;;;;13.85;12.65;;;22.50;98.20;;;;;;5051366;28;20504;-67
2023/07/10 01:21:13;;;;;;;15.50;14.30;;;22.50;98.50;;;;;;5067782;28;20415;-68
2023/07/10 01:23:40;;;;;;;15.10;13.90;;;22.40;98.10;;;;;;5067744;28;20411;-67
2023/07/10 01:26:07;;;;;;;15.80;14.40;;;22.40;98.10;;;;;;5059176;28;20438;-67
2023/07/10 01:28:34;;;;;;;14.75;13.55;;;22.40;98.40;;;;;;5050858;28;20673;-68
2023/07/10 01:31:04;;;;;;;14.77;13.57;;;22.40;98.60;;;;;;5047883;28;20495;-68
2023/07/10 01:33:36;;;;;;;15.55;14.15;;;22.40;98.50;;;;;;5047789;28;20752;-67
2023/07/10 01:36:04;;;;;;;15.20;13.90;;;22.40;98.60;;;;;;5047923;28;20432;-68
2023/07/10 01:38:37;;;;;;;15.43;14.20;;;22.40;98.60;;;;;;5047350;28;20424;-67
2023/07/10 01:41:13;;;;;;;15.80;14.40;;;22.40;98.70;;;;;;5054187;28;20433;-67
2023/07/10 01:43:40;;;;;;;16.92;15.57;;;22.40;98.90;;;;;;5057409;28;20418;-67
2023/07/10 01:46:18;;;;;;;18.90;17.33;;;22.40;98.80;;;;;;5066824;28;20434;-67
2023/07/10 01:48:46;;;;;;;17.27;15.68;;;22.30;98.80;;;;;;5056801;28;20415;-68
2023/07/10 01:51:13;;;;;;;16.85;15.45;;;22.30;98.90;;;;;;5056317;28;20448;-67
2023/07/10 01:53:44;;;;;;;16.00;14.60;;;22.20;98.70;;;;;;5055392;28;20966;-68
2023/07/10 01:56:11;;;;;;;14.90;13.60;;;22.20;99.00;;;;;;5052460;28;20448;-68
2023/07/10 01:58:38;;;;;;;16.30;14.90;;;22.20;99.00;;;;;;5055403;28;20420;-68
2023/07/10 02:01:04;;;;;;;16.23;14.80;;;22.20;98.70;;;;;;5047389;28;20420;-67
2023/07/10 02:03:31;;;;;;;18.50;16.80;;;22.30;98.70;;;;;;5054142;28;20433;-67
2023/07/10 02:05:58;;;;;;;19.15;17.45;;;22.20;98.70;;;;;;5059966;28;20422;-67
2023/07/10 02:08:25;;;;;;;20.17;18.27;;;22.10;99.10;;;;;;5067134;28;21009;-67
2023/07/10 02:10:53;;;;;;;19.70;17.90;;;22.00;99.40;;;;;;5063272;28;20429;-69
2023/07/10 02:13:20;;;;;;;19.50;17.80;;;22.00;99.50;;;;;;5055677;28;20413;-67
2023/07/10 02:15:47;;;;;;;19.95;18.05;;;21.90;99.70;;;;;;5048863;28;20795;-67
2023/07/10 02:18:13;;;;;;;19.93;18.03;;;21.90;99.90;;;;;;5055224;28;20429;-67
2023/07/10 02:20:41;;;;;;;21.60;19.60;;;21.90;99.80;;;;;;5068845;28;20882;-67
2023/07/10 02:23:08;;;;;;;22.17;20.27;;;21.80;99.60;;;;;;5071310;28;20475;-67
2023/07/10 02:25:35;;;;;;;20.00;18.20;;;21.80;99.60;;;;;;5069370;28;20913;-67
2023/07/10 02:28:03;;;;;;;19.45;17.75;;;21.70;99.80;;;;;;5059822;28;20437;-67
2023/07/10 02:30:30;;;;;;;19.05;17.35;;;21.70;99.90;;;;;;5054011;28;20783;-67
2023/07/10 02:32:57;;;;;;;19.17;17.65;;;21.70;99.90;;;;;;5053544;28;20442;-69
2023/07/10 02:35:23;;;;;;;20.25;18.25;;;21.70;99.80;;;;;;5055363;28;20784;-69
2023/07/10 02:37:50;;;;;;;20.52;18.67;;;21.70;99.80;;;;;;5070277;28;20751;-68
2023/07/10 02:40:17;;;;;;;20.63;18.73;;;21.70;99.70;;;;;;5070098;28;20411;-68
2023/07/10 02:42:44;;;;;;;21.80;19.90;;;21.60;99.80;;;;;;5066660;28;20438;-69
2023/07/10 02:45:12;;;;;;;20.85;19.00;;;21.60;99.70;;;;;;5059267;28;20753;-68
2023/07/10 02:47:39;;;;;;;22.13;20.23;;;21.50;99.80;;;;;;5051073;28;20547;-69
2023/07/10 02:50:09;;;;;;;20.67;18.92;;;21.50;99.90;;;;;;5052243;28;20947;-68
2023/07/10 02:52:36;;;;;;;22.65;20.65;;;21.40;99.90;;;;;;5059794;28;20423;-69
2023/07/10 02:55:03;;;;;;;22.55;20.75;;;21.40;99.90;;;;;;5070289;28;20438;-69
2023/07/10 02:57:30;;;;;;;23.52;21.45;;;21.30;99.90;;;;;;5061698;28;20433;-68
2023/07/10 02:59:57;;;;;;;25.50;23.20;;;21.30;99.90;;;;;;5049941;28;20429;-67
2023/07/10 03:02:26;;;;;;;25.23;23.10;;;21.20;99.90;;;;;;5050770;28;20918;-68
2023/07/10 03:04:52;;;;;;;26.05;23.70;;;21.20;99.90;;;;;;5050296;28;20872;-69
2023/07/10 03:07:19;;;;;;;26.52;24.13;;;21.20;99.90;;;;;;5056318;28;20436;-69
2023/07/10 03:09:46;;;;;;;27.70;25.20;;;21.20;99.90;;;;;;5057542;28;20417;-69
2023/07/10 03:12:12;;;;;;;30.65;27.92;;;21.20;99.90;;;;;;5053069;28;20809;-69
2023/07/10 03:14:39;;;;;;;30.43;27.63;;;21.20;99.80;;;;;;5058368;28;20741;-69
2023/07/10 03:17:06;;;;;;;30.00;27.23;;;21.10;99.60;;;;;;5050592;28;20417;-69
2023/07/10 03:19:35;;;;;;;32.40;29.40;;;21.10;99.90;;;;;;5049413;28;20417;-69
2023/07/10 03:22:01;;;;;;;30.98;28.15;;;21.20;99.60;;;;;;5050110;28;20405;-69
2023/07/10 03:24:28;;;;;;;28.35;25.80;;;21.10;99.40;;;;;;5057397;28;20441;-68
2023/07/10 03:26:55;;;;;;;28.43;25.73;;;21.10;99.00;;;;;;5056946;28;20429;-69
2023/07/10 03:29:21;;;;;;;28.25;25.70;;;21.00;99.00;;;;;;5057755;28;20437;-69
2023/07/10 03:31:48;;;;;;;27.60;25.00;;;20.90;99.20;;;;;;5050581;28;20800;-69
2023/07/10 03:34:15;;;;;;;25.38;23.00;;;20.80;99.40;;;;;;5050162;28;20409;-69
2023/07/10 03:36:44;;;;;;;24.42;22.30;;;20.80;99.30;;;;;;5050257;28;20413;-69
2023/07/10 03:39:12;;;;;;;24.40;22.30;;;20.80;99.10;;;;;;5048898;28;20421;-69
2023/07/10 03:41:39;;;;;;;25.87;23.57;;;20.80;99.00;;;;;;5059865;28;20794;-69
2023/07/10 03:44:05;;;;;;;25.10;22.77;;;20.80;98.70;;;;;;5061723;28;20411;-69
2023/07/10 03:46:32;;;;;;;25.50;23.30;;;20.80;98.80;;;;;;5053190;28;20417;-69
2023/07/10 03:48:59;;;;;;;26.67;24.27;;;20.80;98.90;;;;;;5049608;28;20426;-73
2023/07/10 03:51:26;;;;;;;25.60;23.30;;;20.80;98.20;;;;;;5050892;28;20421;-70
2023/07/10 03:53:54;;;;;;;25.83;23.45;;;20.80;98.20;;;;;;5049940;28;20409;-69
2023/07/10 03:56:20;;;;;;;24.00;21.70;;;20.80;98.00;;;;;;5052667;28;20433;-68
2023/07/10 03:58:47;;;;;;;24.63;22.45;;;20.70;97.90;;;;;;5058606;28;20412;-69
2023/07/10 04:01:15;;;;;;;23.07;20.97;;;20.80;97.70;;;;;;5049767;28;20425;-69
2023/07/10 04:03:42;;;;;;;21.20;19.25;;;20.80;97.50;;;;;;5049657;28;20799;-69
2023/07/10 04:06:12;;;;;;;20.92;18.83;;;20.70;97.70;;;;;;5049699;28;20424;-69
2023/07/10 04:08:41;;;;;;;19.30;17.60;;;20.70;97.90;;;;;;5048850;28;20763;-68
2023/07/10 04:11:16;;;;;;;19.52;17.52;;;20.70;97.90;;;;;;5052727;28;20429;-68
2023/07/10 04:13:43;;;;;;;19.63;17.83;;;20.70;98.00;;;;;;5057576;28;20771;-68
2023/07/10 04:16:13;;;;;;;19.77;17.87;;;20.70;98.20;;;;;;5049453;28;20453;-67
2023/07/10 04:18:41;;;;;;;20.70;18.80;;;20.70;98.10;;;;;;5049199;28;20417;-68
2023/07/10 04:21:11;;;;;;;19.25;17.45;;;20.70;97.90;;;;;;5055115;28;20515;-68
2023/07/10 04:23:38;;;;;;;18.50;16.70;;;20.70;97.80;;;;;;5051274;28;20431;-68
2023/07/10 04:26:04;;;;;;;17.60;16.00;;;20.60;98.00;;;;;;5050825;28;20430;-68
2023/07/10 04:28:32;;;;;;;16.85;15.25;;;20.60;98.40;;;;;;5057519;28;20435;-67
2023/07/10 04:30:59;;;;;;;18.45;16.75;;;20.60;98.40;;;;;;5056582;28;20444;-68
2023/07/10 04:33:26;;;;;;;18.17;16.48;;;20.60;98.30;;;;;;5048862;28;20436;-68
2023/07/10 04:35:55;;;;;;;16.60;15.00;;;20.50;98.50;;;;;;5055015;28;20437;-68
2023/07/10 04:38:23;;;;;;;17.17;15.48;;;20.50;98.70;;;;;;5063357;28;20430;-68
2023/07/10 04:40:54;;;;;;;17.13;15.55;;;20.60;98.80;;;;;;5066237;28;20443;-68
2023/07/10 04:43:21;;;;;;;18.60;16.90;;;20.60;98.30;;;;;;5059716;28;21177;-67
2023/07/10 04:45:50;;;;;;;17.63;15.82;;;20.60;98.40;;;;;;5049494;28;20507;-68
2023/07/10 04:48:17;;;;;;;18.80;16.90;;;20.50;98.60;;;;;;5048258;28;20429;-67
2023/07/10 04:50:47;;;;;;;19.15;17.15;;;20.50;98.70;;;;;;5049258;28;20410;-68
2023/07/10 04:53:14;;;;;;;17.65;15.73;;;20.50;98.60;;;;;;5059639;28;20463;-68
2023/07/10 04:55:41;;;;;;;21.10;19.10;;;20.60;98.60;;;;;;5050674;28;20432;-67
2023/07/10 04:58:08;;;;;;;20.67;18.58;;;20.60;98.00;;;;;;5059256;28;20886;-67
2023/07/10 05:00:35;;;;;;;22.02;19.67;;;20.70;97.70;;;;;;5052421;28;20432;-67
2023/07/10 05:03:05;;;;;;;21.60;19.50;;;20.70;97.80;;;;;;5055415;28;20433;-67
2023/07/10 05:05:32;;;;;;;21.90;19.80;;;20.60;97.70;;;;;;5055766;28;20540;-68
2023/07/10 05:08:00;;;;;;;21.05;19.13;;;20.60;97.90;;;;;;5056238;28;20575;-67
2023/07/10 05:10:27;;;;;;;21.50;19.50;;;20.60;98.00;;;;;;5095312;22;20742;-72
2023/07/10 05:12:53;;;;;;;23.25;20.90;;;20.60;97.90;;;;;;5087173;28;20670;-71
2023/07/10 05:15:20;;;;;;;20.58;18.48;;;20.50;97.60;;;;;;5075831;28;20419;-70
2023/07/10 05:17:47;;;;;;;21.05;18.98;;;20.60;98.00;;;;;;5071597;28;21052;-69
2023/07/10 05:20:16;;;;;;;21.00;19.10;;;20.50;97.80;;;;;;5070053;28;20427;-70
2023/07/10 05:22:42;;;;;;;20.65;18.65;;;20.50;97.80;;;;;;5070906;28;20415;-69
2023/07/10 05:25:09;;;;;;;20.17;18.17;;;20.60;97.80;;;;;;5073596;28;20420;-70
2023/07/10 05:27:37;;;;;;;19.33;17.42;;;20.60;97.70;;;;;;5080997;28;20437;-69
2023/07/10 05:30:05;;;;;;;18.35;16.55;;;20.60;97.70;;;;;;5069507;28;20767;-71
2023/07/10 05:32:31;;;;;;;18.33;16.42;;;20.70;97.50;;;;;;5069855;28;20499;-70
2023/07/10 05:34:58;;;;;;;16.37;14.67;;;20.70;97.40;;;;;;5069725;28;20415;-69
2023/07/10 05:37:26;;;;;;;15.40;13.80;;;20.70;97.10;;;;;;5070119;28;20759;-70
2023/07/10 05:39:53;;;;;;;13.60;12.23;;;20.70;96.60;;;;;;5068509;28;20420;-69
2023/07/10 05:42:20;;;;;;;13.10;11.60;;;20.70;96.50;;;;;;5076167;28;20432;-70
2023/07/10 05:44:46;;;;;;;13.82;11.95;;;20.60;96.40;;;;;;5077490;28;20435;-70
2023/07/10 05:47:13;;;;;;;13.35;11.30;;;20.60;96.30;;;;;;5081203;28;20409;-69
2023/07/10 05:49:40;;;;;;;12.80;10.93;;;20.50;96.60;;;;;;5070962;28;20427;-70
2023/07/10 05:52:07;;;;;;;12.45;11.35;;;20.50;96.60;;;;;;5069484;28;20442;-70
2023/07/10 05:54:35;;;;;;;10.48;9.45;;;20.60;96.50;;;;;;5069525;28;20411;-71
2023/07/10 05:57:02;;;;;;;12.45;9.40;;;20.70;96.50;;;;;;5077850;28;20449;-70
2023/07/10 05:59:29;;;;;;;11.43;9.15;;;20.80;96.30;;;;;;5072871;28;20769;-70
2023/07/10 06:01:57;;;;;;;10.95;9.85;;;20.90;95.80;;;;;;5069402;28;20916;-70
2023/07/10 06:04:23;;;;;;;11.50;9.93;;;20.90;94.70;;;;;;5069234;28;20415;-70
2023/07/10 06:06:50;;;;;;;10.00;9.00;;;20.80;94.60;;;;;;5069335;28;20439;-70
2023/07/10 06:09:17;;;;;;;10.30;9.30;;;20.80;94.60;;;;;;5067908;28;20424;-69
2023/07/10 06:11:45;;;;;;;10.65;8.18;;;20.80;94.50;;;;;;5073199;28;20432;-71
2023/07/10 06:14:12;;;;;;;10.65;8.98;;;20.70;94.40;;;;;;5075376;28;20424;-70
2023/07/10 06:16:38;;;;;;;10.57;8.90;;;20.60;94.40;;;;;;5069600;28;20419;-70
2023/07/10 06:19:05;;;;;;;9.75;8.75;;;20.50;94.60;;;;;;5068951;28;20416;-69
2023/07/10 06:21:32;;;;;;;9.60;8.60;;;20.50;94.70;;;;;;5069635;28;20925;-70
2023/07/10 06:23:58;;;;;;;10.98;8.48;;;20.40;94.80;;;;;;5069102;28;20437;-72
2023/07/10 06:26:25;;;;;;;11.00;8.55;;;20.40;94.80;;;;;;5074954;28;20429;-70
2023/07/10 06:28:53;;;;;;;10.35;7.82;;;20.30;95.10;;;;;;5079398;28;20481;-70
2023/07/10 06:31:20;;;;;;;11.82;9.40;;;20.30;95.50;;;;;;5075833;28;20503;-70
2023/07/10 06:33:47;;;;;;;10.48;8.48;;;20.40;95.30;;;;;;5070654;28;20412;-70
2023/07/10 06:36:13;;;;;;;11.27;8.07;;;20.50;95.30;;;;;;5071116;28;20415;-71
2023/07/10 06:38:40;;;;;;;9.30;7.90;;;20.50;94.70;;;;;;5071430;28;20984;-70
2023/07/10 06:41:07;;;;;;;11.00;7.85;;;20.60;94.70;;;;;;5074649;28;20431;-69
2023/07/10 06:43:35;;;;;;;7.70;6.97;;;20.70;94.90;;;;;;5086063;28;20995;-70
2023/07/10 06:46:03;;;;;;;9.65;8.00;;;20.80;94.60;;;;;;5089897;28;20420;-70
2023/07/10 06:48:30;;;;;;;9.35;7.70;;;20.90;93.50;;;;;;5089414;28;20904;-70
2023/07/10 06:50:57;;;;;;;14.07;7.70;;;21.00;93.40;;;;;;5088636;28;20451;-69
2023/07/10 06:53:25;;;;;;;9.82;7.80;;;21.00;93.30;;;;;;5088802;28;20410;-70
2023/07/10 06:55:56;;;;;;;10.40;7.88;;;21.10;92.80;;;;;;5079805;28;20815;-70
2023/07/10 06:58:22;;;;;;;8.88;7.53;;;21.20;92.50;;;;;;5073407;28;20412;-69
2023/07/10 07:00:49;;;;;;;8.30;6.80;;;21.30;92.50;;;;;;5068409;28;20414;-71
2023/07/10 07:03:17;;;;;;;7.97;7.18;;;21.30;92.50;;;;;;5069936;28;20894;-71
2023/07/10 07:05:44;;;;;;;8.00;6.70;;;21.50;91.90;;;;;;5073025;28;20412;-70
2023/07/10 07:08:11;;;;;;;7.10;6.40;;;21.60;91.80;;;;;;5073345;28;20428;-70
2023/07/10 07:10:41;;;;;;;8.85;6.45;;;21.80;91.30;;;;;;5079195;28;20492;-69
2023/07/10 07:13:07;;;;;;;6.50;5.85;;;22.10;90.80;;;;;;5080713;28;20782;-70
2023/07/10 07:15:34;;;;;;;7.68;5.90;;;22.30;88.60;;;;;;5072207;28;20836;-71
2023/07/10 07:18:01;;;;;;;6.13;5.53;;;22.50;87.60;;;;;;5072411;28;20438;-70
2023/07/10 07:20:29;;;;;;;8.05;5.93;;;22.60;87.00;;;;;;5071776;28;20447;-70
2023/07/10 07:22:56;;;;;;;8.07;6.17;;;22.60;86.00;;;;;;5072149;28;20411;-70
2023/07/10 07:25:23;;;;;;;7.32;5.68;;;22.70;85.00;;;;;;5076664;28;20436;-70
2023/07/10 07:27:49;;;;;;;6.20;5.45;;;22.80;84.30;;;;;;5082681;28;20417;-71
2023/07/10 07:30:16;;;;;;;8.23;7.10;;;22.70;85.70;;;;;;5090747;28;20433;-70
2023/07/10 07:32:44;;;;;;;8.40;7.40;;;22.80;83.90;;;;;;5075570;28;20419;-70
2023/07/10 07:35:11;;;;;;;7.50;6.70;;;22.60;84.20;;;;;;5091927;28;20414;-70
2023/07/10 07:37:39;;;;;;;6.90;6.20;;;22.50;85.10;;;;;;5092362;28;20410;-70
2023/07/10 07:40:09;;;;;;;7.72;6.78;;;22.50;84.10;;;;;;5097411;28;20452;-71
2023/07/10 07:42:36;;;;;;;8.00;5.75;;;22.40;84.40;;;;;;5072395;28;20565;-70
2023/07/10 07:45:03;;;;;;;8.32;5.70;;;22.40;85.30;;;;;;5072020;28;20415;-71
2023/07/10 07:47:30;;;;;;;7.15;6.45;;;22.40;84.60;;;;;;5072000;28;20909;-69
2023/07/10 07:49:58;;;;;;;7.15;5.90;;;22.40;84.50;;;;;;5074485;28;20421;-69
2023/07/10 07:52:24;;;;;;;6.55;5.85;;;22.40;84.10;;;;;;5090644;28;20431;-68
2023/07/10 07:54:52;;;;;;;7.17;5.00;;;22.30;84.30;;;;;;5079078;28;20430;-70
2023/07/10 07:57:22;;;;;;;7.23;5.57;;;22.30;84.20;;;;;;5080050;28;20423;-69
2023/07/10 07:59:49;;;;;;;6.22;4.68;;;22.20;84.30;;;;;;5071064;28;20786;-69
2023/07/10 08:02:16;;;;;;;5.72;4.75;;;22.20;85.30;;;;;;5071420;28;20415;-70
2023/07/10 08:04:43;;;;;;;5.95;4.60;;;22.20;85.70;;;;;;5075098;28;20839;-69
2023/07/10 08:07:09;;;;;;;7.65;5.50;;;22.50;84.60;;;;;;5080061;28;20920;-72
2023/07/10 08:09:36;;;;;;;6.10;5.40;;;22.80;82.80;;;;;;5078574;28;20426;-69
2023/07/10 08:12:05;;;;;;;6.10;4.90;;;23.00;81.60;;;;;;5082927;28;20410;-70
2023/07/10 08:14:32;;;;;;;7.47;5.78;;;23.10;80.40;;;;;;5091517;28;20780;-73
2023/07/10 08:16:58;;;;;;;5.10;4.60;;;23.10;79.10;;;;;;5086766;28;20435;-71
2023/07/10 08:19:25;;;;;;;6.57;5.10;;;23.10;80.30;;;;;;5084762;28;20778;-70
2023/07/10 08:21:54;;;;;;;7.30;5.18;;;23.30;78.90;;;;;;5075044;28;20412;-70
2023/07/10 08:24:21;;;;;;;5.50;4.80;;;23.40;78.80;;;;;;5073817;28;20426;-70
2023/07/10 08:26:48;;;;;;;4.60;4.20;;;23.60;77.50;;;;;;5082666;28;20470;-70
2023/07/10 08:29:30;;;;;;;6.38;5.25;;;23.80;77.20;;;;;;5081247;28;20422;-69
2023/07/10 08:31:59;;;;;;;4.78;4.10;;;24.10;74.70;;;;;;5091362;28;20410;-69
2023/07/10 08:34:28;;;;;;;4.57;3.80;;;24.30;73.10;;;;;;5091031;28;20658;-70
2023/07/10 08:36:55;;;;;;;4.17;3.73;;;24.50;71.70;;;;;;5091338;28;20406;-71
2023/07/10 08:39:23;;;;;;;5.38;3.75;;;24.70;70.20;;;;;;5089646;28;20406;-71
2023/07/10 08:41:52;;;;;;;4.15;3.60;;;24.80;69.70;;;;;;5079365;28;20433;-71
2023/07/10 08:44:20;;;;;;;3.53;3.15;;;24.90;68.90;;;;;;5078972;28;20411;-70
2023/07/10 08:46:48;;;;;;;3.97;3.10;;;24.90;68.10;;;;;;5070850;28;20533;-70
2023/07/10 08:49:19;;;;;;;4.72;3.10;;;25.00;66.50;;;;;;5070666;28;20434;-69
2023/07/10 08:51:53;;;;;;;4.32;3.42;;;25.10;67.20;;;;;;5072452;28;20423;-70
2023/07/10 08:54:20;;;;;;;3.90;2.97;;;25.20;66.10;;;;;;5097626;28;20414;-71
2023/07/10 08:56:51;;;;;;;4.80;3.33;;;25.20;66.90;;;;;;5103722;28;20784;-72
2023/07/10 08:59:43;;;;;;;4.10;2.80;;;25.10;66.10;;;;;;5115128;28;20408;-71
2023/07/10 09:02:22;;;;;;;4.13;2.90;;;24.90;66.50;;;;;;5082367;28;20430;-71
2023/07/10 09:04:51;;;;;;;4.07;2.50;;;24.80;64.40;;;;;;5080117;28;20421;-71
2023/07/10 09:07:19;;;;;;;3.33;2.30;;;24.60;63.50;;;;;;5070130;28;20415;-69
2023/07/10 09:09:50;;;;;;;3.20;2.50;;;24.70;63.90;;;;;;5073178;28;20454;-70
2023/07/10 09:12:22;;;;;;;3.50;2.40;;;24.90;61.60;;;;;;5090871;28;20406;-70
2023/07/10 09:14:52;;;;;;;2.67;2.15;;;25.20;62.30;;;;;;5090470;28;20421;-70
2023/07/10 09:17:36;;;;;;;3.70;2.42;;;25.60;59.40;;;;;;5090051;28;20421;-69
2023/07/10 09:20:06;;;;;;;4.07;2.40;;;25.90;59.20;;;;;;5089771;28;20509;-70
2023/07/10 09:22:34;;;;;;;3.00;2.33;;;26.20;57.70;;;;;;5090105;28;20417;-70
2023/07/10 09:25:01;;;;;;;2.90;2.40;;;26.50;56.10;;;;;;5080017;28;20422;-69
2023/07/10 09:27:29;;;;;;;3.70;2.63;;;26.40;54.10;;;;;;5090427;28;20923;-71
2023/07/10 09:29:58;;;;;;;2.80;2.40;;;26.20;53.30;;;;;;5089339;28;20452;-70
2023/07/10 09:32:26;;;;;;;3.10;2.30;;;26.10;55.00;;;;;;5090076;28;20445;-71
2023/07/10 09:34:54;;;;;;;3.40;2.40;;;26.20;55.10;;;;;;5090298;28;20785;-71
2023/07/10 09:37:26;;;;;;;2.63;2.10;;;26.20;55.40;;;;;;5089936;28;20456;-70
2023/07/10 09:39:52;;;;;;;2.13;1.92;;;26.40;51.40;;;;;;5079892;28;20892;-70
2023/07/10 09:42:21;;;;;;;3.55;2.30;;;26.50;51.30;;;;;;5075005;28;20419;-70
2023/07/10 09:44:52;;;;;;;2.40;1.80;;;26.60;51.30;;;;;;5069323;28;20415;-70
2023/07/10 09:47:19;;;;;;;3.35;3.03;;;26.80;49.10;;;;;;5069439;28;20441;-70
2023/07/10 09:49:52;;;;;;;2.70;1.70;;;27.00;48.80;;;;;;5069704;28;20431;-70
2023/07/10 09:52:25;;;;;;;3.17;1.80;;;27.10;48.90;;;;;;5069831;28;20415;-70
2023/07/10 09:54:59;;;;;;;3.10;1.20;;;27.30;48.60;;;;;;5083904;28;20528;-71
2023/07/10 09:57:26;;;;;;;2.90;1.20;;;27.40;44.20;;;;;;5093656;28;20896;-70
2023/07/10 09:59:55;;;;;;;1.90;1.35;;;27.40;44.50;;;;;;5093450;28;20906;-70
2023/07/10 10:02:24;;;;;;;1.80;1.40;;;27.30;45.00;;;;;;5090948;28;20425;-69
2023/07/10 10:05:00;;;;;;;2.92;1.08;;;27.20;45.60;;;;;;5090604;28;20414;-69
2023/07/10 10:07:36;;;;;;;1.77;1.20;;;27.50;45.40;;;;;;5089706;28;20508;-69
2023/07/10 10:10:18;;;;;;;2.70;1.58;;;27.80;45.30;;;;;;5076793;28;20430;-68
2023/07/10 10:12:46;;;;;;;2.87;1.10;;;28.10;43.70;;;;;;5088673;28;20478;-70
2023/07/10 10:15:22;;;;;;;1.90;1.40;;;28.50;42.30;;;;;;5089527;28;20529;-69
2023/07/10 10:17:51;;;;;;;1.85;1.10;;;28.40;41.50;;;;;;5072142;28;20422;-70
2023/07/10 10:20:26;;;;;;;2.33;1.00;;;28.20;41.80;;;;;;5088871;28;20503;-71
2023/07/10 10:22:53;;;;;;;1.30;0.90;;;28.20;41.90;;;;;;5085473;28;20435;-70
2023/07/10 10:25:24;;;;;;;1.40;1.00;;;28.30;41.50;;;;;;5076844;28;20415;-70
2023/07/10 10:27:59;;;;;;;3.47;1.30;;;28.20;40.90;;;;;;5069526;28;20774;-70
2023/07/10 10:30:34;;;;;;;1.60;1.20;;;27.80;40.50;;;;;;5069451;28;20445;-70
2023/07/10 10:33:13;;;;;;;2.28;1.20;;;27.60;41.00;;;;;;5078022;28;20419;-70
2023/07/10 10:35:55;;;;;;;3.15;1.98;;;27.70;40.90;;;;;;5069664;28;20412;-70
2023/07/10 10:38:48;;;;;;;2.93;1.40;;;27.70;41.10;;;;;;5074518;28;20434;-69
2023/07/10 10:41:43;;;;;;;2.38;1.20;;;27.60;41.00;;;;;;5087349;28;20432;-70
2023/07/10 10:44:22;;;;;;;2.70;1.35;;;27.60;42.70;;;;;;5091339;28;20464;-71
2023/07/10 10:46:59;;;;;;;1.90;1.27;;;27.80;41.00;;;;;;5093825;28;20418;-70
2023/07/10 10:49:48;;;;;;;2.00;1.27;;;28.20;40.60;;;;;;5092232;28;20718;-70
2023/07/10 10:52:24;;;;;;;1.70;1.20;;;28.70;40.20;;;;;;5086383;28;20530;-70
2023/07/10 10:55:16;;;;;;;2.27;1.20;;;29.00;39.30;;;;;;5081532;28;20419;-70
2023/07/10 10:57:51;;;;;;;2.10;1.33;;;29.10;38.60;;;;;;5072526;28;20412;-71
2023/07/10 11:00:36;;;;;;;1.53;1.20;;;29.30;38.60;;;;;;5072221;28;20631;-69
2023/07/10 11:03:14;;;;;;;2.10;1.10;;;29.30;38.00;;;;;;5073073;28;20419;-70
2023/07/10 11:05:44;;;;;;;2.10;1.40;;;29.20;39.30;;;;;;5076214;28;20429;-70
2023/07/10 11:08:19;;;;;;;2.57;1.20;;;29.20;37.50;;;;;;5081317;28;20420;-70
2023/07/10 11:10:47;;;;;;;1.60;1.00;;;29.10;38.40;;;;;;5099457;22;20446;-69
2023/07/10 11:13:20;;;;;;;2.85;1.17;;;29.30;38.00;;;;;;5089433;28;20492;-69
2023/07/10 11:15:47;;;;;;;1.70;1.20;;;29.40;38.30;;;;;;5091220;28;20437;-70
2023/07/10 11:18:16;;;;;;;1.92;1.30;;;29.60;38.00;;;;;;5091143;28;20443;-69
2023/07/10 11:20:43;;;;;;;2.20;1.30;;;29.80;37.10;;;;;;5089463;28;20423;-69
2023/07/10 11:23:37;;;;;;;2.80;1.23;;;29.70;37.20;;;;;;5089290;28;20433;-69
2023/07/10 11:26:09;;;;;;;2.55;1.20;;;29.70;36.40;;;;;;5083245;28;20847;-69
2023/07/10 11:28:38;;;;;;;1.70;1.08;;;29.50;37.00;;;;;;5090704;28;20414;-69
2023/07/10 11:31:20;;;;;;;1.83;1.40;;;29.40;36.70;;;;;;5090341;28;20457;-69
2023/07/10 11:33:51;;;;;;;1.80;1.02;;;29.30;37.00;;;;;;5090834;28;20417;-68
2023/07/10 11:36:35;;;;;;;1.30;1.00;;;29.30;37.40;;;;;;5089582;28;20469;-69
2023/07/10 11:39:18;;;;;;;2.10;1.20;;;29.30;38.40;;;;;;5082707;28;20424;-68
2023/07/10 11:42:14;;;;;;;2.10;1.50;;;29.30;37.70;;;;;;5090700;28;20410;-69
2023/07/10 11:44:41;;;;;;;1.80;1.05;;;29.50;37.90;;;;;;5090675;28;20406;-69
2023/07/10 11:47:30;;;;;;;2.30;1.10;;;29.90;37.30;;;;;;5090491;28;20510;-68
2023/07/10 11:50:15;;;;;;;2.40;1.50;;;29.90;37.50;;;;;;5084689;28;20428;-69
2023/07/10 11:52:42;;;;;;;2.35;1.33;;;29.60;37.90;;;;;;5080038;28;20900;-68
2023/07/10 11:55:15;;;;;;;2.00;1.35;;;29.50;37.50;;;;;;5090053;28;20493;-68
2023/07/10 11:57:42;;;;;;;2.10;1.30;;;29.60;37.70;;;;;;5089867;28;20884;-69
2023/07/10 12:00:26;;;;;;;1.80;1.42;;;29.80;37.50;;;;;;5089739;28;20540;-69
2023/07/10 12:02:55;;;;;;;1.77;1.20;;;30.00;37.50;;;;;;5090962;28;20854;-68
2023/07/10 12:05:25;;;;;;;2.10;1.30;;;30.10;35.90;;;;;;5089677;28;20810;-69
2023/07/10 12:07:53;;;;;;;2.63;1.23;;;29.90;37.00;;;;;;5081947;28;20454;-68
2023/07/10 12:10:22;;;;;;;1.50;1.17;;;30.10;36.30;;;;;;5089497;28;20437;-69
2023/07/10 12:12:50;;;;;;;1.50;0.93;;;30.40;37.10;;;;;;5090366;28;20425;-69
2023/07/10 12:15:17;;;;;;;2.08;1.20;;;31.00;36.30;;;;;;5089830;28;20449;-70
2023/07/10 12:17:44;;;;;;;2.50;1.20;;;31.50;34.60;;;;;;5090185;28;20504;-69
2023/07/10 12:20:27;;;;;;;1.70;1.02;;;32.00;32.60;;;;;;5088204;28;20429;-70
2023/07/10 12:22:56;;;;;;;1.15;0.90;;;32.20;32.60;;;;;;5079961;28;20425;-69
2023/07/10 12:25:24;;;;;;;1.70;1.10;;;32.10;31.70;;;;;;5088678;28;20906;-69
2023/07/10 12:27:51;;;;;;;1.50;0.88;;;31.70;31.80;;;;;;5080724;28;20415;-69
2023/07/10 12:30:21;;;;;;;1.40;0.93;;;31.40;33.60;;;;;;5088683;28;20916;-69
2023/07/10 12:32:50;;;;;;;2.00;1.03;;;31.40;33.00;;;;;;5089154;28;20425;-69
2023/07/10 12:35:26;;;;;;;1.42;0.98;;;31.60;32.50;;;;;;5082750;28;20416;-69
2023/07/10 12:37:53;;;;;;;1.70;0.80;;;31.70;32.60;;;;;;5089392;28;20458;-69
2023/07/10 12:40:20;;;;;;;1.70;0.93;;;31.70;32.60;;;;;;5089097;28;20406;-69
2023/07/10 12:42:48;;;;;;;2.05;1.40;;;32.20;32.20;;;;;;5089654;28;20406;-69
2023/07/10 12:45:27;;;;;;;2.10;1.08;;;32.70;31.70;;;;;;5089294;28;20424;-69
2023/07/10 12:47:57;;;;;;;1.80;0.80;;;33.30;30.80;;;;;;5086897;28;20431;-69
2023/07/10 12:50:35;;;;;;;1.48;1.00;;;33.80;30.00;;;;;;5081485;28;20431;-69